sensor_id;sensor_type;location;lat;lon;timestamp;P1;durP1;ratioP1;P2;durP2;ratioP2
10705;SDS011;5404;42.656;23.336;2023-09-07T00:00:20;15.60;;;10.07;;
10705;SDS011;5404;42.656;23.336;2023-09-07T00:02:46;14.20;;;9.48;;
10705;SDS011;5404;42.656;23.336;2023-09-07T00:05:11;16.73;;;10.18;;
10705;SDS011;5404;42.656;23.336;2023-09-07T00:07:38;18.55;;;10.00;;
10705;SDS011;5404;42.656;23.336;2023-09-07T00:10:04;18.50;;;9.77;;
10705;SDS011;5404;42.656;23.336;2023-09-07T00:12:30;18.45;;;9.45;;
10705;SDS011;5404;42.656;23.336;2023-09-07T00:14:56;21.52;;;10.45;;
10705;SDS011;5404;42.656;23.336;2023-09-07T00:17:22;18.85;;;10.35;;
10705;SDS011;5404;42.656;23.336;2023-09-07T00:19:48;18.45;;;10.15;;
10705;SDS011;5404;42.656;23.336;2023-09-07T00:22:15;15.55;;;10.07;;
10705;SDS011;5404;42.656;23.336;2023-09-07T00:24:41;17.40;;;10.40;;
10705;SDS011;5404;42.656;23.336;2023-09-07T00:27:06;18.17;;;11.15;;
10705;SDS011;5404;42.656;23.336;2023-09-07T00:29:33;21.30;;;9.95;;
10705;SDS011;5404;42.656;23.336;2023-09-07T00:32:00;16.15;;;9.45;;
10705;SDS011;5404;42.656;23.336;2023-09-07T00:34:25;13.15;;;9.90;;
10705;SDS011;5404;42.656;23.336;2023-09-07T00:36:51;18.90;;;11.05;;
10705;SDS011;5404;42.656;23.336;2023-09-07T00:39:16;22.25;;;11.90;;
10705;SDS011;5404;42.656;23.336;2023-09-07T00:41:42;16.58;;;11.20;;
10705;SDS011;5404;42.656;23.336;2023-09-07T00:44:07;18.65;;;10.80;;
10705;SDS011;5404;42.656;23.336;2023-09-07T00:46:33;13.60;;;10.73;;
10705;SDS011;5404;42.656;23.336;2023-09-07T00:48:58;15.35;;;10.90;;
10705;SDS011;5404;42.656;23.336;2023-09-07T00:51:24;17.40;;;10.55;;
10705;SDS011;5404;42.656;23.336;2023-09-07T00:53:50;19.20;;;10.80;;
10705;SDS011;5404;42.656;23.336;2023-09-07T00:56:15;19.95;;;10.48;;
10705;SDS011;5404;42.656;23.336;2023-09-07T00:58:41;24.42;;;11.93;;
10705;SDS011;5404;42.656;23.336;2023-09-07T01:01:08;22.98;;;11.82;;
10705;SDS011;5404;42.656;23.336;2023-09-07T01:03:34;19.80;;;13.57;;
10705;SDS011;5404;42.656;23.336;2023-09-07T01:06:20;20.65;;;14.00;;
10705;SDS011;5404;42.656;23.336;2023-09-07T01:08:51;19.38;;;13.18;;
10705;SDS011;5404;42.656;23.336;2023-09-07T01:11:23;21.70;;;14.63;;
10705;SDS011;5404;42.656;23.336;2023-09-07T01:13:49;24.95;;;14.63;;
10705;SDS011;5404;42.656;23.336;2023-09-07T01:16:15;25.17;;;15.38;;
10705;SDS011;5404;42.656;23.336;2023-09-07T01:18:41;20.55;;;14.73;;
10705;SDS011;5404;42.656;23.336;2023-09-07T01:21:08;28.55;;;15.52;;
10705;SDS011;5404;42.656;23.336;2023-09-07T01:23:38;24.17;;;15.30;;
10705;SDS011;5404;42.656;23.336;2023-09-07T01:26:06;28.13;;;15.30;;
10705;SDS011;5404;42.656;23.336;2023-09-07T01:28:33;21.70;;;15.52;;
10705;SDS011;5404;42.656;23.336;2023-09-07T01:30:59;19.20;;;13.90;;
10705;SDS011;5404;42.656;23.336;2023-09-07T01:33:26;19.25;;;14.15;;
10705;SDS011;5404;42.656;23.336;2023-09-07T01:35:51;21.58;;;14.95;;
10705;SDS011;5404;42.656;23.336;2023-09-07T01:38:17;24.20;;;13.60;;
10705;SDS011;5404;42.656;23.336;2023-09-07T01:40:43;27.33;;;15.23;;
10705;SDS011;5404;42.656;23.336;2023-09-07T01:43:08;21.98;;;13.68;;
10705;SDS011;5404;42.656;23.336;2023-09-07T01:45:33;23.92;;;14.38;;
10705;SDS011;5404;42.656;23.336;2023-09-07T01:47:59;23.88;;;14.55;;
10705;SDS011;5404;42.656;23.336;2023-09-07T01:50:25;25.63;;;14.73;;
10705;SDS011;5404;42.656;23.336;2023-09-07T01:52:51;22.65;;;15.23;;
10705;SDS011;5404;42.656;23.336;2023-09-07T01:55:17;27.90;;;14.90;;
10705;SDS011;5404;42.656;23.336;2023-09-07T01:57:43;21.33;;;14.90;;
10705;SDS011;5404;42.656;23.336;2023-09-07T02:00:09;22.80;;;14.35;;
10705;SDS011;5404;42.656;23.336;2023-09-07T02:02:35;24.23;;;14.85;;
10705;SDS011;5404;42.656;23.336;2023-09-07T02:05:00;24.70;;;15.50;;
10705;SDS011;5404;42.656;23.336;2023-09-07T02:07:26;25.30;;;17.27;;
10705;SDS011;5404;42.656;23.336;2023-09-07T02:09:51;30.08;;;14.80;;
10705;SDS011;5404;42.656;23.336;2023-09-07T02:12:17;23.38;;;15.52;;
10705;SDS011;5404;42.656;23.336;2023-09-07T02:14:42;25.05;;;17.02;;
10705;SDS011;5404;42.656;23.336;2023-09-07T02:17:08;26.85;;;15.90;;
10705;SDS011;5404;42.656;23.336;2023-09-07T02:19:33;27.98;;;15.98;;
10705;SDS011;5404;42.656;23.336;2023-09-07T02:21:59;23.33;;;15.40;;
10705;SDS011;5404;42.656;23.336;2023-09-07T02:24:24;27.00;;;15.40;;
10705;SDS011;5404;42.656;23.336;2023-09-07T02:26:49;24.45;;;14.68;;
10705;SDS011;5404;42.656;23.336;2023-09-07T02:29:15;28.38;;;14.63;;
10705;SDS011;5404;42.656;23.336;2023-09-07T02:31:41;22.77;;;14.93;;
10705;SDS011;5404;42.656;23.336;2023-09-07T02:34:06;22.63;;;14.95;;
10705;SDS011;5404;42.656;23.336;2023-09-07T02:36:32;25.85;;;15.65;;
10705;SDS011;5404;42.656;23.336;2023-09-07T02:39:00;23.80;;;15.82;;
10705;SDS011;5404;42.656;23.336;2023-09-07T02:41:26;24.90;;;14.70;;
10705;SDS011;5404;42.656;23.336;2023-09-07T02:43:52;21.27;;;14.85;;
10705;SDS011;5404;42.656;23.336;2023-09-07T02:46:17;34.53;;;15.98;;
10705;SDS011;5404;42.656;23.336;2023-09-07T02:48:43;22.70;;;15.43;;
10705;SDS011;5404;42.656;23.336;2023-09-07T02:51:08;34.92;;;17.00;;
10705;SDS011;5404;42.656;23.336;2023-09-07T02:53:33;24.92;;;15.55;;
10705;SDS011;5404;42.656;23.336;2023-09-07T02:55:59;28.23;;;16.15;;
10705;SDS011;5404;42.656;23.336;2023-09-07T02:58:27;26.38;;;17.17;;
10705;SDS011;5404;42.656;23.336;2023-09-07T03:00:52;27.73;;;16.20;;
10705;SDS011;5404;42.656;23.336;2023-09-07T03:03:18;22.92;;;16.45;;
10705;SDS011;5404;42.656;23.336;2023-09-07T03:05:43;28.65;;;17.27;;
10705;SDS011;5404;42.656;23.336;2023-09-07T03:08:10;25.45;;;18.67;;
10705;SDS011;5404;42.656;23.336;2023-09-07T03:10:35;26.20;;;17.98;;
10705;SDS011;5404;42.656;23.336;2023-09-07T03:13:04;40.42;;;20.40;;
10705;SDS011;5404;42.656;23.336;2023-09-07T03:15:30;33.30;;;20.30;;
10705;SDS011;5404;42.656;23.336;2023-09-07T03:17:56;31.15;;;20.30;;
10705;SDS011;5404;42.656;23.336;2023-09-07T03:20:21;26.10;;;20.13;;
10705;SDS011;5404;42.656;23.336;2023-09-07T03:22:47;33.90;;;22.60;;
10705;SDS011;5404;42.656;23.336;2023-09-07T03:25:12;30.70;;;21.13;;
10705;SDS011;5404;42.656;23.336;2023-09-07T03:27:39;30.88;;;20.20;;
10705;SDS011;5404;42.656;23.336;2023-09-07T03:30:05;32.22;;;22.52;;
10705;SDS011;5404;42.656;23.336;2023-09-07T03:32:31;31.20;;;20.90;;
10705;SDS011;5404;42.656;23.336;2023-09-07T03:35:02;32.90;;;21.40;;
10705;SDS011;5404;42.656;23.336;2023-09-07T03:37:31;38.15;;;23.35;;
10705;SDS011;5404;42.656;23.336;2023-09-07T03:39:57;36.72;;;23.02;;
10705;SDS011;5404;42.656;23.336;2023-09-07T03:42:22;33.13;;;21.83;;
10705;SDS011;5404;42.656;23.336;2023-09-07T03:44:48;34.35;;;21.67;;
10705;SDS011;5404;42.656;23.336;2023-09-07T03:47:14;32.38;;;21.13;;
10705;SDS011;5404;42.656;23.336;2023-09-07T03:49:40;33.47;;;22.27;;
10705;SDS011;5404;42.656;23.336;2023-09-07T03:52:06;38.35;;;23.67;;
10705;SDS011;5404;42.656;23.336;2023-09-07T03:54:32;47.58;;;23.73;;
10705;SDS011;5404;42.656;23.336;2023-09-07T03:56:57;32.92;;;21.27;;
10705;SDS011;5404;42.656;23.336;2023-09-07T03:59:22;34.90;;;22.45;;
10705;SDS011;5404;42.656;23.336;2023-09-07T04:01:48;32.08;;;22.40;;
10705;SDS011;5404;42.656;23.336;2023-09-07T04:04:14;31.50;;;22.40;;
10705;SDS011;5404;42.656;23.336;2023-09-07T04:06:40;38.60;;;22.48;;
10705;SDS011;5404;42.656;23.336;2023-09-07T04:09:05;34.60;;;22.05;;
10705;SDS011;5404;42.656;23.336;2023-09-07T04:11:31;30.73;;;20.23;;
10705;SDS011;5404;42.656;23.336;2023-09-07T04:13:56;30.63;;;18.95;;
10705;SDS011;5404;42.656;23.336;2023-09-07T04:16:21;32.80;;;20.42;;
10705;SDS011;5404;42.656;23.336;2023-09-07T04:18:47;28.48;;;19.48;;
10705;SDS011;5404;42.656;23.336;2023-09-07T04:21:12;27.70;;;19.08;;
10705;SDS011;5404;42.656;23.336;2023-09-07T04:23:38;31.70;;;19.10;;
10705;SDS011;5404;42.656;23.336;2023-09-07T04:26:05;31.95;;;20.77;;
10705;SDS011;5404;42.656;23.336;2023-09-07T04:28:34;27.15;;;19.42;;
10705;SDS011;5404;42.656;23.336;2023-09-07T04:31:00;27.60;;;18.95;;
10705;SDS011;5404;42.656;23.336;2023-09-07T04:33:25;32.33;;;20.92;;
10705;SDS011;5404;42.656;23.336;2023-09-07T04:35:51;41.50;;;21.50;;
10705;SDS011;5404;42.656;23.336;2023-09-07T04:38:16;31.63;;;20.75;;
10705;SDS011;5404;42.656;23.336;2023-09-07T04:40:42;31.92;;;22.08;;
10705;SDS011;5404;42.656;23.336;2023-09-07T04:43:07;25.85;;;18.17;;
10705;SDS011;5404;42.656;23.336;2023-09-07T04:45:32;34.55;;;20.38;;
10705;SDS011;5404;42.656;23.336;2023-09-07T04:47:58;30.92;;;20.10;;
10705;SDS011;5404;42.656;23.336;2023-09-07T04:50:23;30.33;;;17.83;;
10705;SDS011;5404;42.656;23.336;2023-09-07T04:52:49;30.48;;;16.83;;
10705;SDS011;5404;42.656;23.336;2023-09-07T04:55:14;26.38;;;17.40;;
10705;SDS011;5404;42.656;23.336;2023-09-07T04:57:40;30.27;;;16.27;;
10705;SDS011;5404;42.656;23.336;2023-09-07T05:00:06;29.52;;;19.10;;
10705;SDS011;5404;42.656;23.336;2023-09-07T05:02:32;26.30;;;17.75;;
10705;SDS011;5404;42.656;23.336;2023-09-07T05:05:03;28.45;;;16.65;;
10705;SDS011;5404;42.656;23.336;2023-09-07T05:07:29;37.63;;;17.42;;
10705;SDS011;5404;42.656;23.336;2023-09-07T05:09:54;36.22;;;18.80;;
10705;SDS011;5404;42.656;23.336;2023-09-07T05:12:20;28.02;;;17.95;;
10705;SDS011;5404;42.656;23.336;2023-09-07T05:14:45;24.30;;;16.63;;
10705;SDS011;5404;42.656;23.336;2023-09-07T05:17:11;30.60;;;17.95;;
10705;SDS011;5404;42.656;23.336;2023-09-07T05:19:37;33.92;;;17.98;;
10705;SDS011;5404;42.656;23.336;2023-09-07T05:22:02;29.45;;;18.83;;
10705;SDS011;5404;42.656;23.336;2023-09-07T05:24:27;34.20;;;15.73;;
10705;SDS011;5404;42.656;23.336;2023-09-07T05:26:53;29.20;;;17.88;;
10705;SDS011;5404;42.656;23.336;2023-09-07T05:29:18;26.33;;;17.80;;
10705;SDS011;5404;42.656;23.336;2023-09-07T05:31:45;39.45;;;19.50;;
10705;SDS011;5404;42.656;23.336;2023-09-07T05:34:10;37.78;;;19.13;;
10705;SDS011;5404;42.656;23.336;2023-09-07T05:36:36;28.63;;;18.48;;
10705;SDS011;5404;42.656;23.336;2023-09-07T05:39:01;31.20;;;19.58;;
10705;SDS011;5404;42.656;23.336;2023-09-07T05:41:28;30.30;;;17.70;;
10705;SDS011;5404;42.656;23.336;2023-09-07T05:43:54;36.75;;;18.75;;
10705;SDS011;5404;42.656;23.336;2023-09-07T05:46:20;38.08;;;18.98;;
10705;SDS011;5404;42.656;23.336;2023-09-07T05:48:45;28.98;;;18.17;;
10705;SDS011;5404;42.656;23.336;2023-09-07T05:51:11;25.02;;;16.40;;
10705;SDS011;5404;42.656;23.336;2023-09-07T05:53:36;33.90;;;17.30;;
10705;SDS011;5404;42.656;23.336;2023-09-07T05:56:01;29.80;;;17.55;;
10705;SDS011;5404;42.656;23.336;2023-09-07T05:58:27;32.30;;;18.02;;
10705;SDS011;5404;42.656;23.336;2023-09-07T06:00:52;24.70;;;14.63;;
10705;SDS011;5404;42.656;23.336;2023-09-07T06:03:18;30.15;;;15.77;;
10705;SDS011;5404;42.656;23.336;2023-09-07T06:10:58;23.67;;;14.33;;
10705;SDS011;5404;42.656;23.336;2023-09-07T06:13:24;20.77;;;14.45;;
10705;SDS011;5404;42.656;23.336;2023-09-07T06:15:50;19.60;;;12.77;;
10705;SDS011;5404;42.656;23.336;2023-09-07T06:18:15;30.90;;;14.55;;
10705;SDS011;5404;42.656;23.336;2023-09-07T06:23:04;25.52;;;13.68;;
10705;SDS011;5404;42.656;23.336;2023-09-07T06:25:29;35.92;;;14.98;;
10705;SDS011;5404;42.656;23.336;2023-09-07T06:27:55;19.67;;;13.38;;
10705;SDS011;5404;42.656;23.336;2023-09-07T06:30:20;35.35;;;14.20;;
10705;SDS011;5404;42.656;23.336;2023-09-07T06:32:46;21.95;;;12.73;;
10705;SDS011;5404;42.656;23.336;2023-09-07T06:35:13;33.50;;;13.65;;
10705;SDS011;5404;42.656;23.336;2023-09-07T06:37:39;18.13;;;12.43;;
10705;SDS011;5404;42.656;23.336;2023-09-07T06:40:07;27.30;;;11.73;;
10705;SDS011;5404;42.656;23.336;2023-09-07T06:42:34;25.20;;;11.57;;
10705;SDS011;5404;42.656;23.336;2023-09-07T06:44:59;17.73;;;10.95;;
10705;SDS011;5404;42.656;23.336;2023-09-07T06:47:25;18.40;;;11.18;;
10705;SDS011;5404;42.656;23.336;2023-09-07T06:49:50;22.15;;;11.07;;
10705;SDS011;5404;42.656;23.336;2023-09-07T06:52:15;15.80;;;9.65;;
10705;SDS011;5404;42.656;23.336;2023-09-07T06:54:41;16.48;;;10.15;;
10705;SDS011;5404;42.656;23.336;2023-09-07T06:57:07;15.00;;;9.95;;
10705;SDS011;5404;42.656;23.336;2023-09-07T06:59:33;19.42;;;9.45;;
10705;SDS011;5404;42.656;23.336;2023-09-07T07:01:59;13.30;;;8.60;;
10705;SDS011;5404;42.656;23.336;2023-09-07T07:04:25;15.70;;;9.13;;
10705;SDS011;5404;42.656;23.336;2023-09-07T07:06:51;14.15;;;8.95;;
10705;SDS011;5404;42.656;23.336;2023-09-07T07:09:16;15.27;;;9.52;;
10705;SDS011;5404;42.656;23.336;2023-09-07T07:11:42;19.27;;;9.65;;
10705;SDS011;5404;42.656;23.336;2023-09-07T07:14:08;13.20;;;8.75;;
10705;SDS011;5404;42.656;23.336;2023-09-07T07:16:34;18.15;;;9.88;;
10705;SDS011;5404;42.656;23.336;2023-09-07T07:18:59;22.08;;;10.02;;
10705;SDS011;5404;42.656;23.336;2023-09-07T07:21:25;20.80;;;9.27;;
10705;SDS011;5404;42.656;23.336;2023-09-07T07:23:50;18.02;;;9.73;;
10705;SDS011;5404;42.656;23.336;2023-09-07T07:26:16;18.65;;;10.95;;
10705;SDS011;5404;42.656;23.336;2023-09-07T07:28:42;24.52;;;10.55;;
10705;SDS011;5404;42.656;23.336;2023-09-07T07:31:08;20.63;;;13.85;;
10705;SDS011;5404;42.656;23.336;2023-09-07T07:33:34;18.95;;;10.32;;
10705;SDS011;5404;42.656;23.336;2023-09-07T07:36:00;21.90;;;9.75;;
10705;SDS011;5404;42.656;23.336;2023-09-07T07:38:26;16.23;;;10.05;;
10705;SDS011;5404;42.656;23.336;2023-09-07T07:40:51;17.05;;;11.02;;
10705;SDS011;5404;42.656;23.336;2023-09-07T07:43:18;19.15;;;10.52;;
10705;SDS011;5404;42.656;23.336;2023-09-07T07:45:43;19.02;;;10.63;;
10705;SDS011;5404;42.656;23.336;2023-09-07T07:48:09;17.63;;;9.95;;
10705;SDS011;5404;42.656;23.336;2023-09-07T07:50:38;14.35;;;9.75;;
10705;SDS011;5404;42.656;23.336;2023-09-07T07:53:04;16.10;;;10.07;;
10705;SDS011;5404;42.656;23.336;2023-09-07T07:55:33;15.63;;;9.65;;
10705;SDS011;5404;42.656;23.336;2023-09-07T07:58:03;16.50;;;10.30;;
10705;SDS011;5404;42.656;23.336;2023-09-07T08:00:33;20.83;;;10.52;;
10705;SDS011;5404;42.656;23.336;2023-09-07T08:03:01;26.98;;;11.02;;
10705;SDS011;5404;42.656;23.336;2023-09-07T08:05:28;15.50;;;8.95;;
10705;SDS011;5404;42.656;23.336;2023-09-07T08:07:54;12.55;;;9.57;;
10705;SDS011;5404;42.656;23.336;2023-09-07T08:10:21;14.25;;;9.93;;
10705;SDS011;5404;42.656;23.336;2023-09-07T08:12:46;15.80;;;10.00;;
10705;SDS011;5404;42.656;23.336;2023-09-07T08:15:12;19.85;;;10.80;;
10705;SDS011;5404;42.656;23.336;2023-09-07T08:17:37;24.63;;;10.15;;
10705;SDS011;5404;42.656;23.336;2023-09-07T08:20:03;17.08;;;9.52;;
10705;SDS011;5404;42.656;23.336;2023-09-07T08:22:28;17.55;;;11.00;;
10705;SDS011;5404;42.656;23.336;2023-09-07T08:24:54;12.70;;;8.40;;
10705;SDS011;5404;42.656;23.336;2023-09-07T08:27:20;15.52;;;9.48;;
10705;SDS011;5404;42.656;23.336;2023-09-07T08:29:46;13.10;;;8.57;;
10705;SDS011;5404;42.656;23.336;2023-09-07T08:32:13;16.38;;;8.40;;
10705;SDS011;5404;42.656;23.336;2023-09-07T08:34:39;20.20;;;8.70;;
10705;SDS011;5404;42.656;23.336;2023-09-07T08:37:06;20.00;;;8.55;;
10705;SDS011;5404;42.656;23.336;2023-09-07T08:39:34;20.60;;;9.30;;
10705;SDS011;5404;42.656;23.336;2023-09-07T08:41:59;20.40;;;9.73;;
10705;SDS011;5404;42.656;23.336;2023-09-07T08:44:26;13.80;;;8.98;;
10705;SDS011;5404;42.656;23.336;2023-09-07T08:46:51;19.08;;;9.25;;
10705;SDS011;5404;42.656;23.336;2023-09-07T08:49:18;17.48;;;8.60;;
10705;SDS011;5404;42.656;23.336;2023-09-07T08:51:44;15.75;;;8.40;;
10705;SDS011;5404;42.656;23.336;2023-09-07T08:54:10;11.80;;;7.60;;
10705;SDS011;5404;42.656;23.336;2023-09-07T08:56:37;15.73;;;8.07;;
10705;SDS011;5404;42.656;23.336;2023-09-07T08:59:03;12.18;;;7.47;;
10705;SDS011;5404;42.656;23.336;2023-09-07T09:01:29;18.90;;;8.05;;
10705;SDS011;5404;42.656;23.336;2023-09-07T09:03:58;14.35;;;7.53;;
10705;SDS011;5404;42.656;23.336;2023-09-07T09:06:24;14.32;;;6.80;;
10705;SDS011;5404;42.656;23.336;2023-09-07T09:08:51;15.65;;;7.78;;
10705;SDS011;5404;42.656;23.336;2023-09-07T09:11:18;13.60;;;7.35;;
10705;SDS011;5404;42.656;23.336;2023-09-07T09:13:45;11.88;;;7.47;;
10705;SDS011;5404;42.656;23.336;2023-09-07T09:16:12;15.45;;;7.05;;
10705;SDS011;5404;42.656;23.336;2023-09-07T09:19:00;19.92;;;6.82;;
10705;SDS011;5404;42.656;23.336;2023-09-07T09:21:25;10.75;;;6.40;;
10705;SDS011;5404;42.656;23.336;2023-09-07T09:23:52;19.80;;;6.85;;
10705;SDS011;5404;42.656;23.336;2023-09-07T09:26:19;15.05;;;7.53;;
10705;SDS011;5404;42.656;23.336;2023-09-07T09:28:45;8.07;;;6.10;;
10705;SDS011;5404;42.656;23.336;2023-09-07T09:31:10;11.23;;;5.80;;
10705;SDS011;5404;42.656;23.336;2023-09-07T09:33:40;10.00;;;6.03;;
10705;SDS011;5404;42.656;23.336;2023-09-07T09:36:06;15.02;;;6.15;;
10705;SDS011;5404;42.656;23.336;2023-09-07T09:38:33;15.23;;;6.53;;
10705;SDS011;5404;42.656;23.336;2023-09-07T09:40:59;14.20;;;7.05;;
10705;SDS011;5404;42.656;23.336;2023-09-07T09:43:25;14.60;;;6.50;;
10705;SDS011;5404;42.656;23.336;2023-09-07T09:45:51;10.65;;;6.22;;
10705;SDS011;5404;42.656;23.336;2023-09-07T09:48:21;9.38;;;5.93;;
10705;SDS011;5404;42.656;23.336;2023-09-07T09:50:47;12.88;;;6.45;;
10705;SDS011;5404;42.656;23.336;2023-09-07T09:53:14;8.40;;;4.95;;
10705;SDS011;5404;42.656;23.336;2023-09-07T09:55:44;9.38;;;6.10;;
10705;SDS011;5404;42.656;23.336;2023-09-07T09:58:11;12.50;;;6.05;;
10705;SDS011;5404;42.656;23.336;2023-09-07T10:00:38;14.02;;;6.15;;
10705;SDS011;5404;42.656;23.336;2023-09-07T10:03:10;9.82;;;6.40;;
10705;SDS011;5404;42.656;23.336;2023-09-07T10:05:39;10.77;;;6.68;;
10705;SDS011;5404;42.656;23.336;2023-09-07T10:08:14;11.52;;;5.88;;
10705;SDS011;5404;42.656;23.336;2023-09-07T10:10:41;10.63;;;6.18;;
10705;SDS011;5404;42.656;23.336;2023-09-07T10:13:07;17.67;;;7.93;;
10705;SDS011;5404;42.656;23.336;2023-09-07T10:15:33;7.97;;;5.78;;
10705;SDS011;5404;42.656;23.336;2023-09-07T10:20:49;10.13;;;6.03;;
10705;SDS011;5404;42.656;23.336;2023-09-07T10:23:23;9.52;;;5.93;;
10705;SDS011;5404;42.656;23.336;2023-09-07T10:26:02;9.45;;;6.72;;
10705;SDS011;5404;42.656;23.336;2023-09-07T10:28:31;14.57;;;6.25;;
10705;SDS011;5404;42.656;23.336;2023-09-07T10:31:07;16.30;;;6.68;;
10705;SDS011;5404;42.656;23.336;2023-09-07T10:33:38;8.00;;;5.13;;
10705;SDS011;5404;42.656;23.336;2023-09-07T10:36:04;13.95;;;5.63;;
10705;SDS011;5404;42.656;23.336;2023-09-07T10:38:31;11.05;;;6.43;;
10705;SDS011;5404;42.656;23.336;2023-09-07T10:40:57;11.60;;;6.45;;
10705;SDS011;5404;42.656;23.336;2023-09-07T10:43:27;10.55;;;6.07;;
10705;SDS011;5404;42.656;23.336;2023-09-07T10:45:56;12.77;;;6.03;;
10705;SDS011;5404;42.656;23.336;2023-09-07T10:48:23;7.85;;;5.38;;
10705;SDS011;5404;42.656;23.336;2023-09-07T10:50:50;9.90;;;5.90;;
10705;SDS011;5404;42.656;23.336;2023-09-07T10:53:24;10.68;;;5.85;;
10705;SDS011;5404;42.656;23.336;2023-09-07T10:55:52;7.70;;;5.88;;
10705;SDS011;5404;42.656;23.336;2023-09-07T10:58:28;11.43;;;6.03;;
10705;SDS011;5404;42.656;23.336;2023-09-07T11:00:57;14.07;;;6.40;;
10705;SDS011;5404;42.656;23.336;2023-09-07T11:03:23;16.15;;;6.05;;
10705;SDS011;5404;42.656;23.336;2023-09-07T11:05:51;7.60;;;5.75;;
10705;SDS011;5404;42.656;23.336;2023-09-07T11:08:17;12.15;;;6.05;;
10705;SDS011;5404;42.656;23.336;2023-09-07T11:10:43;13.13;;;6.43;;
10705;SDS011;5404;42.656;23.336;2023-09-07T11:13:09;7.82;;;5.05;;
10705;SDS011;5404;42.656;23.336;2023-09-07T11:15:34;9.27;;;5.13;;
10705;SDS011;5404;42.656;23.336;2023-09-07T11:18:04;9.85;;;6.28;;
10705;SDS011;5404;42.656;23.336;2023-09-07T11:20:31;9.88;;;5.70;;
10705;SDS011;5404;42.656;23.336;2023-09-07T11:22:57;11.07;;;5.70;;
10705;SDS011;5404;42.656;23.336;2023-09-07T11:25:22;14.77;;;6.05;;
10705;SDS011;5404;42.656;23.336;2023-09-07T11:27:48;12.02;;;6.00;;
10705;SDS011;5404;42.656;23.336;2023-09-07T11:30:13;15.15;;;5.75;;
10705;SDS011;5404;42.656;23.336;2023-09-07T11:32:38;16.38;;;5.55;;
10705;SDS011;5404;42.656;23.336;2023-09-07T11:35:06;10.20;;;5.18;;
10705;SDS011;5404;42.656;23.336;2023-09-07T11:37:32;14.57;;;5.43;;
10705;SDS011;5404;42.656;23.336;2023-09-07T11:39:58;13.30;;;5.53;;
10705;SDS011;5404;42.656;23.336;2023-09-07T11:42:24;8.27;;;5.47;;
10705;SDS011;5404;42.656;23.336;2023-09-07T11:44:49;9.90;;;5.97;;
10705;SDS011;5404;42.656;23.336;2023-09-07T11:47:15;10.40;;;5.13;;
10705;SDS011;5404;42.656;23.336;2023-09-07T11:49:41;17.52;;;5.57;;
10705;SDS011;5404;42.656;23.336;2023-09-07T11:52:06;12.43;;;5.13;;
10705;SDS011;5404;42.656;23.336;2023-09-07T11:54:32;7.90;;;5.28;;
10705;SDS011;5404;42.656;23.336;2023-09-07T11:56:58;8.93;;;4.60;;
10705;SDS011;5404;42.656;23.336;2023-09-07T11:59:23;10.13;;;5.32;;
10705;SDS011;5404;42.656;23.336;2023-09-07T12:01:48;14.57;;;4.70;;
10705;SDS011;5404;42.656;23.336;2023-09-07T12:04:14;9.18;;;5.13;;
10705;SDS011;5404;42.656;23.336;2023-09-07T12:06:39;7.45;;;4.63;;
10705;SDS011;5404;42.656;23.336;2023-09-07T12:09:05;6.95;;;4.03;;
10705;SDS011;5404;42.656;23.336;2023-09-07T12:11:32;12.13;;;5.30;;
10705;SDS011;5404;42.656;23.336;2023-09-07T12:13:58;20.52;;;5.22;;
10705;SDS011;5404;42.656;23.336;2023-09-07T12:16:24;10.07;;;5.03;;
10705;SDS011;5404;42.656;23.336;2023-09-07T12:18:50;10.95;;;5.13;;
10705;SDS011;5404;42.656;23.336;2023-09-07T12:21:16;9.10;;;5.05;;
10705;SDS011;5404;42.656;23.336;2023-09-07T12:23:41;8.48;;;4.80;;
10705;SDS011;5404;42.656;23.336;2023-09-07T12:26:07;14.25;;;5.63;;
10705;SDS011;5404;42.656;23.336;2023-09-07T12:28:33;7.18;;;4.72;;
10705;SDS011;5404;42.656;23.336;2023-09-07T12:30:59;11.27;;;4.95;;
10705;SDS011;5404;42.656;23.336;2023-09-07T12:33:24;12.15;;;4.85;;
10705;SDS011;5404;42.656;23.336;2023-09-07T12:35:50;10.38;;;5.20;;
10705;SDS011;5404;42.656;23.336;2023-09-07T12:38:16;6.90;;;4.43;;
10705;SDS011;5404;42.656;23.336;2023-09-07T12:40:45;9.60;;;4.80;;
10705;SDS011;5404;42.656;23.336;2023-09-07T12:43:10;11.57;;;5.80;;
10705;SDS011;5404;42.656;23.336;2023-09-07T12:45:36;6.63;;;5.03;;
10705;SDS011;5404;42.656;23.336;2023-09-07T12:48:01;10.50;;;5.38;;
10705;SDS011;5404;42.656;23.336;2023-09-07T12:50:27;15.48;;;4.72;;
10705;SDS011;5404;42.656;23.336;2023-09-07T12:52:53;13.40;;;4.40;;
10705;SDS011;5404;42.656;23.336;2023-09-07T12:55:19;10.05;;;5.13;;
10705;SDS011;5404;42.656;23.336;2023-09-07T12:57:45;7.43;;;4.80;;
10705;SDS011;5404;42.656;23.336;2023-09-07T13:00:10;10.35;;;4.72;;
10705;SDS011;5404;42.656;23.336;2023-09-07T13:02:37;15.98;;;4.32;;
10705;SDS011;5404;42.656;23.336;2023-09-07T13:05:02;8.15;;;4.57;;
10705;SDS011;5404;42.656;23.336;2023-09-07T13:07:31;9.70;;;4.05;;
10705;SDS011;5404;42.656;23.336;2023-09-07T13:09:57;13.82;;;4.60;;
10705;SDS011;5404;42.656;23.336;2023-09-07T13:12:23;10.38;;;4.43;;
10705;SDS011;5404;42.656;23.336;2023-09-07T13:14:49;7.63;;;4.22;;
10705;SDS011;5404;42.656;23.336;2023-09-07T13:17:14;7.05;;;4.32;;
10705;SDS011;5404;42.656;23.336;2023-09-07T13:19:40;12.50;;;4.97;;
10705;SDS011;5404;42.656;23.336;2023-09-07T13:22:06;8.95;;;4.68;;
10705;SDS011;5404;42.656;23.336;2023-09-07T13:24:32;6.78;;;4.15;;
10705;SDS011;5404;42.656;23.336;2023-09-07T13:26:58;9.52;;;4.75;;
10705;SDS011;5404;42.656;23.336;2023-09-07T13:29:23;8.18;;;4.85;;
10705;SDS011;5404;42.656;23.336;2023-09-07T13:31:51;9.65;;;4.50;;
10705;SDS011;5404;42.656;23.336;2023-09-07T13:34:18;17.40;;;10.05;;
10705;SDS011;5404;42.656;23.336;2023-09-07T13:36:44;7.40;;;4.15;;
10705;SDS011;5404;42.656;23.336;2023-09-07T13:39:10;8.27;;;4.10;;
10705;SDS011;5404;42.656;23.336;2023-09-07T13:41:35;8.27;;;4.45;;
10705;SDS011;5404;42.656;23.336;2023-09-07T13:44:01;8.50;;;4.80;;
10705;SDS011;5404;42.656;23.336;2023-09-07T13:46:26;11.93;;;4.90;;
10705;SDS011;5404;42.656;23.336;2023-09-07T13:48:52;10.32;;;4.82;;
10705;SDS011;5404;42.656;23.336;2023-09-07T13:51:17;6.75;;;4.78;;
10705;SDS011;5404;42.656;23.336;2023-09-07T13:53:43;7.97;;;4.45;;
10705;SDS011;5404;42.656;23.336;2023-09-07T13:56:08;5.80;;;4.47;;
10705;SDS011;5404;42.656;23.336;2023-09-07T13:58:34;9.15;;;4.63;;
10705;SDS011;5404;42.656;23.336;2023-09-07T14:00:59;11.80;;;4.18;;
10705;SDS011;5404;42.656;23.336;2023-09-07T14:03:25;8.57;;;4.75;;
10705;SDS011;5404;42.656;23.336;2023-09-07T14:05:50;11.27;;;4.70;;
10705;SDS011;5404;42.656;23.336;2023-09-07T14:08:16;9.18;;;4.68;;
10705;SDS011;5404;42.656;23.336;2023-09-07T14:10:42;8.63;;;4.30;;
10705;SDS011;5404;42.656;23.336;2023-09-07T14:13:07;8.32;;;4.25;;
10705;SDS011;5404;42.656;23.336;2023-09-07T14:15:33;8.10;;;4.63;;
10705;SDS011;5404;42.656;23.336;2023-09-07T14:17:58;8.30;;;4.78;;
10705;SDS011;5404;42.656;23.336;2023-09-07T14:20:25;13.02;;;5.50;;
10705;SDS011;5404;42.656;23.336;2023-09-07T14:22:51;8.00;;;4.70;;
10705;SDS011;5404;42.656;23.336;2023-09-07T14:25:16;6.95;;;4.68;;
10705;SDS011;5404;42.656;23.336;2023-09-07T14:27:42;8.18;;;4.82;;
10705;SDS011;5404;42.656;23.336;2023-09-07T14:30:07;12.35;;;5.43;;
10705;SDS011;5404;42.656;23.336;2023-09-07T14:32:33;8.80;;;5.22;;
10705;SDS011;5404;42.656;23.336;2023-09-07T14:34:59;8.13;;;4.55;;